sensor_id;sensor_type;location;lat;lon;timestamp;P1;durP1;ratioP1;P2;durP2;ratioP2
64208;SDS011;50527;52.414;13.226;2023-02-15T00:01:37;15.05;;;4.45;;
64208;SDS011;50527;52.414;13.226;2023-02-15T00:04:03;13.32;;;3.92;;
64208;SDS011;50527;52.414;13.226;2023-02-15T00:06:29;12.35;;;4.28;;
64208;SDS011;50527;52.414;13.226;2023-02-15T00:08:55;12.60;;;4.78;;
64208;SDS011;50527;52.414;13.226;2023-02-15T00:11:21;12.88;;;4.28;;
64208;SDS011;50527;52.414;13.226;2023-02-15T00:14:06;15.05;;;4.97;;
64208;SDS011;50527;52.414;13.226;2023-02-15T00:16:33;19.98;;;5.43;;
64208;SDS011;50527;52.414;13.226;2023-02-15T00:18:59;13.25;;;4.72;;
64208;SDS011;50527;52.414;13.226;2023-02-15T00:21:28;15.98;;;4.68;;
64208;SDS011;50527;52.414;13.226;2023-02-15T00:23:55;14.60;;;3.65;;
64208;SDS011;50527;52.414;13.226;2023-02-15T00:26:22;11.90;;;4.13;;
64208;SDS011;50527;52.414;13.226;2023-02-15T00:28:47;13.07;;;4.80;;
64208;SDS011;50527;52.414;13.226;2023-02-15T00:31:13;13.57;;;4.72;;
64208;SDS011;50527;52.414;13.226;2023-02-15T00:33:39;10.05;;;4.05;;
64208;SDS011;50527;52.414;13.226;2023-02-15T00:36:06;14.70;;;4.20;;
64208;SDS011;50527;52.414;13.226;2023-02-15T00:38:32;13.85;;;4.53;;
64208;SDS011;50527;52.414;13.226;2023-02-15T00:41:00;12.35;;;4.05;;
64208;SDS011;50527;52.414;13.226;2023-02-15T00:43:26;17.77;;;4.45;;
64208;SDS011;50527;52.414;13.226;2023-02-15T00:45:53;10.30;;;3.72;;
64208;SDS011;50527;52.414;13.226;2023-02-15T00:48:19;11.55;;;4.60;;
64208;SDS011;50527;52.414;13.226;2023-02-15T00:50:47;12.43;;;4.80;;
64208;SDS011;50527;52.414;13.226;2023-02-15T00:53:14;12.95;;;4.25;;
64208;SDS011;50527;52.414;13.226;2023-02-15T00:55:40;14.27;;;4.68;;
64208;SDS011;50527;52.414;13.226;2023-02-15T00:58:06;16.77;;;4.22;;
64208;SDS011;50527;52.414;13.226;2023-02-15T01:00:32;11.18;;;4.20;;
64208;SDS011;50527;52.414;13.226;2023-02-15T01:02:57;13.60;;;5.07;;
64208;SDS011;50527;52.414;13.226;2023-02-15T01:05:23;10.48;;;4.40;;
64208;SDS011;50527;52.414;13.226;2023-02-15T01:07:48;15.75;;;4.75;;
64208;SDS011;50527;52.414;13.226;2023-02-15T01:10:14;11.02;;;4.55;;
64208;SDS011;50527;52.414;13.226;2023-02-15T01:12:39;11.18;;;4.25;;
64208;SDS011;50527;52.414;13.226;2023-02-15T01:15:05;19.45;;;5.13;;
64208;SDS011;50527;52.414;13.226;2023-02-15T01:17:37;10.65;;;4.45;;
64208;SDS011;50527;52.414;13.226;2023-02-15T01:20:03;12.13;;;4.40;;
64208;SDS011;50527;52.414;13.226;2023-02-15T01:22:29;11.25;;;4.32;;
64208;SDS011;50527;52.414;13.226;2023-02-15T01:24:55;10.35;;;4.20;;
64208;SDS011;50527;52.414;13.226;2023-02-15T01:27:20;13.27;;;4.32;;
64208;SDS011;50527;52.414;13.226;2023-02-15T01:29:46;13.40;;;4.35;;
64208;SDS011;50527;52.414;13.226;2023-02-15T01:32:12;18.38;;;4.40;;
64208;SDS011;50527;52.414;13.226;2023-02-15T01:34:38;11.95;;;4.28;;
64208;SDS011;50527;52.414;13.226;2023-02-15T01:37:03;9.82;;;4.20;;
64208;SDS011;50527;52.414;13.226;2023-02-15T01:39:28;11.25;;;4.03;;
64208;SDS011;50527;52.414;13.226;2023-02-15T01:41:54;11.40;;;4.05;;
64208;SDS011;50527;52.414;13.226;2023-02-15T01:44:40;12.30;;;4.35;;
64208;SDS011;50527;52.414;13.226;2023-02-15T01:47:14;9.37;;;3.37;;
64208;SDS011;50527;52.414;13.226;2023-02-15T01:49:45;12.00;;;4.38;;
64208;SDS011;50527;52.414;13.226;2023-02-15T01:52:12;9.48;;;4.15;;
64208;SDS011;50527;52.414;13.226;2023-02-15T01:54:40;11.95;;;4.43;;
64208;SDS011;50527;52.414;13.226;2023-02-15T01:57:10;13.98;;;3.70;;
64208;SDS011;50527;52.414;13.226;2023-02-15T01:59:41;11.57;;;3.85;;
64208;SDS011;50527;52.414;13.226;2023-02-15T02:02:11;15.65;;;4.10;;
64208;SDS011;50527;52.414;13.226;2023-02-15T02:04:41;11.02;;;3.55;;
64208;SDS011;50527;52.414;13.226;2023-02-15T02:07:12;11.32;;;3.83;;
64208;SDS011;50527;52.414;13.226;2023-02-15T02:09:40;11.38;;;4.22;;
64208;SDS011;50527;52.414;13.226;2023-02-15T02:12:06;8.82;;;3.22;;
64208;SDS011;50527;52.414;13.226;2023-02-15T02:14:33;15.38;;;4.50;;
64208;SDS011;50527;52.414;13.226;2023-02-15T02:17:06;11.10;;;3.67;;
64208;SDS011;50527;52.414;13.226;2023-02-15T02:26:08;12.05;;;4.38;;
64208;SDS011;50527;52.414;13.226;2023-02-15T02:31:49;13.02;;;4.55;;
64208;SDS011;50527;52.414;13.226;2023-02-15T02:34:24;12.40;;;3.70;;
64208;SDS011;50527;52.414;13.226;2023-02-15T02:37:03;8.23;;;3.67;;
64208;SDS011;50527;52.414;13.226;2023-02-15T02:39:33;8.63;;;3.70;;
64208;SDS011;50527;52.414;13.226;2023-02-15T02:42:18;15.35;;;4.57;;
64208;SDS011;50527;52.414;13.226;2023-02-15T02:44:54;17.77;;;3.95;;
64208;SDS011;50527;52.414;13.226;2023-02-15T02:47:29;10.43;;;4.10;;
64208;SDS011;50527;52.414;13.226;2023-02-15T02:50:00;13.85;;;3.90;;
64208;SDS011;50527;52.414;13.226;2023-02-15T02:52:46;9.98;;;3.55;;
64208;SDS011;50527;52.414;13.226;2023-02-15T02:55:17;8.88;;;3.47;;
64208;SDS011;50527;52.414;13.226;2023-02-15T02:57:52;9.57;;;3.85;;
64208;SDS011;50527;52.414;13.226;2023-02-15T03:00:20;11.60;;;3.85;;
64208;SDS011;50527;52.414;13.226;2023-02-15T03:02:49;11.60;;;4.05;;
64208;SDS011;50527;52.414;13.226;2023-02-15T03:05:23;12.40;;;4.10;;
64208;SDS011;50527;52.414;13.226;2023-02-15T03:07:54;6.95;;;3.17;;
64208;SDS011;50527;52.414;13.226;2023-02-15T03:10:22;10.88;;;4.15;;
64208;SDS011;50527;52.414;13.226;2023-02-15T03:12:49;10.65;;;4.20;;
64208;SDS011;50527;52.414;13.226;2023-02-15T03:15:17;10.75;;;3.95;;
64208;SDS011;50527;52.414;13.226;2023-02-15T03:17:54;11.27;;;3.92;;
64208;SDS011;50527;52.414;13.226;2023-02-15T03:25:25;13.30;;;3.35;;
64208;SDS011;50527;52.414;13.226;2023-02-15T03:27:58;10.27;;;3.47;;
64208;SDS011;50527;52.414;13.226;2023-02-15T03:30:26;13.20;;;4.88;;
64208;SDS011;50527;52.414;13.226;2023-02-15T03:32:54;10.30;;;3.88;;
64208;SDS011;50527;52.414;13.226;2023-02-15T03:35:23;12.65;;;3.53;;
64208;SDS011;50527;52.414;13.226;2023-02-15T03:37:59;13.73;;;4.07;;
64208;SDS011;50527;52.414;13.226;2023-02-15T03:40:28;13.93;;;4.30;;
64208;SDS011;50527;52.414;13.226;2023-02-15T03:46:21;9.68;;;3.75;;
64208;SDS011;50527;52.414;13.226;2023-02-15T03:48:54;10.63;;;4.50;;
64208;SDS011;50527;52.414;13.226;2023-02-15T03:51:36;12.27;;;4.28;;
64208;SDS011;50527;52.414;13.226;2023-02-15T03:54:08;8.82;;;4.15;;
64208;SDS011;50527;52.414;13.226;2023-02-15T03:56:38;15.63;;;4.70;;
64208;SDS011;50527;52.414;13.226;2023-02-15T03:59:05;10.50;;;3.78;;
64208;SDS011;50527;52.414;13.226;2023-02-15T04:04:37;7.90;;;3.33;;
64208;SDS011;50527;52.414;13.226;2023-02-15T04:07:04;15.05;;;3.70;;
64208;SDS011;50527;52.414;13.226;2023-02-15T04:09:31;14.75;;;4.15;;
64208;SDS011;50527;52.414;13.226;2023-02-15T04:12:15;11.65;;;3.78;;
64208;SDS011;50527;52.414;13.226;2023-02-15T04:14:41;10.57;;;4.10;;
64208;SDS011;50527;52.414;13.226;2023-02-15T04:17:25;14.57;;;3.97;;
64208;SDS011;50527;52.414;13.226;2023-02-15T04:19:51;12.43;;;4.10;;
64208;SDS011;50527;52.414;13.226;2023-02-15T04:22:35;16.33;;;4.75;;
64208;SDS011;50527;52.414;13.226;2023-02-15T04:25:19;14.05;;;4.38;;
64208;SDS011;50527;52.414;13.226;2023-02-15T04:27:49;13.75;;;4.53;;
64208;SDS011;50527;52.414;13.226;2023-02-15T04:30:17;17.08;;;4.97;;
64208;SDS011;50527;52.414;13.226;2023-02-15T04:32:44;13.63;;;4.53;;
64208;SDS011;50527;52.414;13.226;2023-02-15T04:35:10;15.00;;;4.60;;
64208;SDS011;50527;52.414;13.226;2023-02-15T04:37:36;12.52;;;4.38;;
64208;SDS011;50527;52.414;13.226;2023-02-15T04:40:02;14.60;;;4.50;;
64208;SDS011;50527;52.414;13.226;2023-02-15T04:42:29;14.57;;;5.15;;
64208;SDS011;50527;52.414;13.226;2023-02-15T04:44:54;18.60;;;5.80;;
64208;SDS011;50527;52.414;13.226;2023-02-15T04:47:20;18.33;;;5.40;;
64208;SDS011;50527;52.414;13.226;2023-02-15T04:49:45;19.30;;;6.22;;
64208;SDS011;50527;52.414;13.226;2023-02-15T04:52:11;17.33;;;6.43;;
64208;SDS011;50527;52.414;13.226;2023-02-15T04:54:36;21.27;;;6.40;;
64208;SDS011;50527;52.414;13.226;2023-02-15T04:57:02;22.95;;;6.03;;
64208;SDS011;50527;52.414;13.226;2023-02-15T04:59:28;18.20;;;5.75;;
64208;SDS011;50527;52.414;13.226;2023-02-15T05:01:54;19.88;;;4.88;;
64208;SDS011;50527;52.414;13.226;2023-02-15T05:04:19;19.13;;;5.88;;
64208;SDS011;50527;52.414;13.226;2023-02-15T05:06:45;18.13;;;6.15;;
64208;SDS011;50527;52.414;13.226;2023-02-15T05:09:11;22.20;;;5.43;;
64208;SDS011;50527;52.414;13.226;2023-02-15T05:11:37;16.40;;;5.65;;
64208;SDS011;50527;52.414;13.226;2023-02-15T05:14:03;22.55;;;6.88;;
64208;SDS011;50527;52.414;13.226;2023-02-15T05:16:28;22.70;;;6.95;;
64208;SDS011;50527;52.414;13.226;2023-02-15T05:18:54;18.35;;;6.38;;
64208;SDS011;50527;52.414;13.226;2023-02-15T05:21:19;23.20;;;6.40;;
64208;SDS011;50527;52.414;13.226;2023-02-15T05:23:45;28.23;;;6.63;;
64208;SDS011;50527;52.414;13.226;2023-02-15T05:26:11;30.27;;;7.00;;
64208;SDS011;50527;52.414;13.226;2023-02-15T05:28:58;28.40;;;6.80;;
64208;SDS011;50527;52.414;13.226;2023-02-15T05:31:23;19.38;;;7.22;;
64208;SDS011;50527;52.414;13.226;2023-02-15T05:33:49;23.70;;;7.55;;
64208;SDS011;50527;52.414;13.226;2023-02-15T05:36:14;20.92;;;6.15;;
64208;SDS011;50527;52.414;13.226;2023-02-15T05:38:40;34.35;;;7.32;;
64208;SDS011;50527;52.414;13.226;2023-02-15T05:41:06;32.20;;;7.65;;
64208;SDS011;50527;52.414;13.226;2023-02-15T05:43:32;25.15;;;6.95;;
64208;SDS011;50527;52.414;13.226;2023-02-15T05:45:58;17.77;;;5.78;;
64208;SDS011;50527;52.414;13.226;2023-02-15T05:48:24;25.02;;;6.90;;
64208;SDS011;50527;52.414;13.226;2023-02-15T05:51:00;16.48;;;6.35;;
64208;SDS011;50527;52.414;13.226;2023-02-15T05:53:34;26.08;;;6.78;;
64208;SDS011;50527;52.414;13.226;2023-02-15T05:56:02;18.58;;;5.53;;
64208;SDS011;50527;52.414;13.226;2023-02-15T05:58:28;20.98;;;5.97;;
64208;SDS011;50527;52.414;13.226;2023-02-15T06:00:55;23.42;;;5.40;;
64208;SDS011;50527;52.414;13.226;2023-02-15T06:03:22;20.70;;;5.05;;
64208;SDS011;50527;52.414;13.226;2023-02-15T06:05:48;15.23;;;5.45;;
64208;SDS011;50527;52.414;13.226;2023-02-15T06:08:13;29.33;;;6.38;;
64208;SDS011;50527;52.414;13.226;2023-02-15T06:10:39;22.95;;;6.97;;
64208;SDS011;50527;52.414;13.226;2023-02-15T06:13:05;20.60;;;5.95;;
64208;SDS011;50527;52.414;13.226;2023-02-15T06:15:31;20.15;;;5.95;;
64208;SDS011;50527;52.414;13.226;2023-02-15T06:17:57;16.52;;;5.97;;
64208;SDS011;50527;52.414;13.226;2023-02-15T06:20:22;20.90;;;6.35;;
64208;SDS011;50527;52.414;13.226;2023-02-15T06:22:48;20.23;;;5.65;;
64208;SDS011;50527;52.414;13.226;2023-02-15T06:25:13;25.17;;;4.93;;
64208;SDS011;50527;52.414;13.226;2023-02-15T06:27:40;22.65;;;5.53;;
64208;SDS011;50527;52.414;13.226;2023-02-15T06:30:07;13.73;;;4.70;;
64208;SDS011;50527;52.414;13.226;2023-02-15T06:32:34;19.35;;;5.75;;
64208;SDS011;50527;52.414;13.226;2023-02-15T06:35:00;33.47;;;5.70;;
64208;SDS011;50527;52.414;13.226;2023-02-15T06:37:25;14.23;;;4.47;;
64208;SDS011;50527;52.414;13.226;2023-02-15T06:39:51;36.03;;;5.55;;
64208;SDS011;50527;52.414;13.226;2023-02-15T06:42:16;24.73;;;4.50;;
64208;SDS011;50527;52.414;13.226;2023-02-15T06:44:43;11.20;;;4.35;;
64208;SDS011;50527;52.414;13.226;2023-02-15T06:47:09;14.95;;;4.30;;
64208;SDS011;50527;52.414;13.226;2023-02-15T06:49:35;11.57;;;3.65;;
64208;SDS011;50527;52.414;13.226;2023-02-15T06:52:01;12.60;;;3.65;;
64208;SDS011;50527;52.414;13.226;2023-02-15T06:54:27;11.48;;;3.88;;
64208;SDS011;50527;52.414;13.226;2023-02-15T06:56:52;22.15;;;5.40;;
64208;SDS011;50527;52.414;13.226;2023-02-15T06:59:18;14.75;;;4.85;;
64208;SDS011;50527;52.414;13.226;2023-02-15T07:01:43;32.78;;;4.65;;
64208;SDS011;50527;52.414;13.226;2023-02-15T07:04:09;13.65;;;4.72;;
64208;SDS011;50527;52.414;13.226;2023-02-15T07:06:34;13.10;;;3.85;;
64208;SDS011;50527;52.414;13.226;2023-02-15T07:09:00;13.43;;;4.78;;
64208;SDS011;50527;52.414;13.226;2023-02-15T07:11:26;26.60;;;5.15;;
64208;SDS011;50527;52.414;13.226;2023-02-15T07:14:10;11.80;;;4.32;;
64208;SDS011;50527;52.414;13.226;2023-02-15T07:16:35;36.38;;;4.60;;
64208;SDS011;50527;52.414;13.226;2023-02-15T07:19:01;16.17;;;4.43;;
64208;SDS011;50527;52.414;13.226;2023-02-15T07:21:26;14.73;;;4.50;;
64208;SDS011;50527;52.414;13.226;2023-02-15T07:23:55;17.15;;;3.92;;
64208;SDS011;50527;52.414;13.226;2023-02-15T07:26:22;14.82;;;4.18;;
64208;SDS011;50527;52.414;13.226;2023-02-15T07:28:48;14.05;;;4.15;;
64208;SDS011;50527;52.414;13.226;2023-02-15T07:31:14;9.77;;;3.97;;
64208;SDS011;50527;52.414;13.226;2023-02-15T07:33:39;14.55;;;4.55;;
64208;SDS011;50527;52.414;13.226;2023-02-15T07:36:05;11.63;;;3.95;;
64208;SDS011;50527;52.414;13.226;2023-02-15T07:38:31;13.38;;;4.53;;
64208;SDS011;50527;52.414;13.226;2023-02-15T07:40:59;14.93;;;4.60;;
64208;SDS011;50527;52.414;13.226;2023-02-15T07:43:26;13.27;;;4.43;;
64208;SDS011;50527;52.414;13.226;2023-02-15T07:45:51;12.63;;;4.15;;
64208;SDS011;50527;52.414;13.226;2023-02-15T07:48:17;15.23;;;4.80;;
64208;SDS011;50527;52.414;13.226;2023-02-15T07:50:42;15.02;;;5.07;;
64208;SDS011;50527;52.414;13.226;2023-02-15T07:53:08;12.45;;;4.90;;
64208;SDS011;50527;52.414;13.226;2023-02-15T07:55:34;13.48;;;4.40;;
64208;SDS011;50527;52.414;13.226;2023-02-15T07:57:59;17.02;;;5.07;;
64208;SDS011;50527;52.414;13.226;2023-02-15T08:00:25;13.45;;;4.28;;
64208;SDS011;50527;52.414;13.226;2023-02-15T08:02:52;13.43;;;4.45;;
64208;SDS011;50527;52.414;13.226;2023-02-15T08:05:42;14.85;;;4.93;;
64208;SDS011;50527;52.414;13.226;2023-02-15T08:08:09;16.15;;;4.05;;
64208;SDS011;50527;52.414;13.226;2023-02-15T08:10:58;19.73;;;5.20;;
64208;SDS011;50527;52.414;13.226;2023-02-15T08:13:44;12.48;;;4.65;;
64208;SDS011;50527;52.414;13.226;2023-02-15T08:16:26;20.23;;;4.03;;
64208;SDS011;50527;52.414;13.226;2023-02-15T08:18:57;16.60;;;4.40;;
64208;SDS011;50527;52.414;13.226;2023-02-15T08:21:25;14.02;;;4.85;;
64208;SDS011;50527;52.414;13.226;2023-02-15T08:23:52;16.40;;;4.60;;
64208;SDS011;50527;52.414;13.226;2023-02-15T08:26:18;18.95;;;4.75;;
64208;SDS011;50527;52.414;13.226;2023-02-15T08:28:44;12.02;;;4.07;;
64208;SDS011;50527;52.414;13.226;2023-02-15T08:31:11;12.00;;;4.07;;
64208;SDS011;50527;52.414;13.226;2023-02-15T08:33:38;14.60;;;5.05;;
64208;SDS011;50527;52.414;13.226;2023-02-15T08:36:09;14.93;;;5.18;;
64208;SDS011;50527;52.414;13.226;2023-02-15T08:38:39;18.45;;;5.60;;
64208;SDS011;50527;52.414;13.226;2023-02-15T08:41:13;11.48;;;4.30;;
64208;SDS011;50527;52.414;13.226;2023-02-15T08:43:49;11.98;;;4.07;;
64208;SDS011;50527;52.414;13.226;2023-02-15T08:46:20;15.00;;;5.00;;
64208;SDS011;50527;52.414;13.226;2023-02-15T08:48:48;22.65;;;5.38;;
64208;SDS011;50527;52.414;13.226;2023-02-15T08:51:14;17.77;;;5.25;;
64208;SDS011;50527;52.414;13.226;2023-02-15T08:53:43;15.55;;;5.53;;
64208;SDS011;50527;52.414;13.226;2023-02-15T08:56:10;12.90;;;4.50;;
64208;SDS011;50527;52.414;13.226;2023-02-15T08:58:36;15.75;;;5.22;;
64208;SDS011;50527;52.414;13.226;2023-02-15T09:01:08;16.98;;;5.43;;
64208;SDS011;50527;52.414;13.226;2023-02-15T09:03:37;15.02;;;4.38;;
64208;SDS011;50527;52.414;13.226;2023-02-15T09:06:03;13.35;;;4.45;;
64208;SDS011;50527;52.414;13.226;2023-02-15T09:08:28;12.18;;;4.45;;
64208;SDS011;50527;52.414;13.226;2023-02-15T09:11:03;13.43;;;4.90;;
64208;SDS011;50527;52.414;13.226;2023-02-15T09:13:30;17.08;;;4.90;;
64208;SDS011;50527;52.414;13.226;2023-02-15T09:15:59;14.13;;;4.85;;
64208;SDS011;50527;52.414;13.226;2023-02-15T09:18:29;17.20;;;5.28;;
64208;SDS011;50527;52.414;13.226;2023-02-15T09:20:56;15.10;;;5.15;;
64208;SDS011;50527;52.414;13.226;2023-02-15T09:23:22;15.73;;;4.95;;
64208;SDS011;50527;52.414;13.226;2023-02-15T09:25:47;14.43;;;4.78;;
64208;SDS011;50527;52.414;13.226;2023-02-15T09:28:13;18.00;;;5.47;;
64208;SDS011;50527;52.414;13.226;2023-02-15T09:30:38;16.48;;;5.05;;
64208;SDS011;50527;52.414;13.226;2023-02-15T09:33:04;13.57;;;5.32;;
64208;SDS011;50527;52.414;13.226;2023-02-15T09:35:29;19.15;;;5.28;;
64208;SDS011;50527;52.414;13.226;2023-02-15T09:37:55;14.40;;;5.35;;
64208;SDS011;50527;52.414;13.226;2023-02-15T09:40:20;18.30;;;4.95;;
64208;SDS011;50527;52.414;13.226;2023-02-15T09:42:58;18.33;;;5.53;;
64208;SDS011;50527;52.414;13.226;2023-02-15T09:45:44;19.55;;;5.80;;
64208;SDS011;50527;52.414;13.226;2023-02-15T09:48:41;19.27;;;5.63;;
64208;SDS011;50527;52.414;13.226;2023-02-15T09:52:09;17.63;;;5.72;;
64208;SDS011;50527;52.414;13.226;2023-02-15T10:00:19;16.83;;;5.78;;
64208;SDS011;50527;52.414;13.226;2023-02-15T10:03:03;15.32;;;5.53;;
64208;SDS011;50527;52.414;13.226;2023-02-15T10:08:28;17.25;;;5.90;;
64208;SDS011;50527;52.414;13.226;2023-02-15T10:11:23;21.02;;;5.97;;
64208;SDS011;50527;52.414;13.226;2023-02-15T10:17:12;16.67;;;5.60;;
64208;SDS011;50527;52.414;13.226;2023-02-15T10:20:17;21.70;;;6.45;;
64208;SDS011;50527;52.414;13.226;2023-02-15T10:25:51;20.55;;;5.63;;
64208;SDS011;50527;52.414;13.226;2023-02-15T10:28:51;20.15;;;5.22;;
64208;SDS011;50527;52.414;13.226;2023-02-15T10:39:25;14.75;;;6.10;;
64208;SDS011;50527;52.414;13.226;2023-02-15T10:42:04;15.85;;;5.78;;
64208;SDS011;50527;52.414;13.226;2023-02-15T10:44:44;19.02;;;6.13;;
64208;SDS011;50527;52.414;13.226;2023-02-15T10:47:58;22.45;;;6.75;;
64208;SDS011;50527;52.414;13.226;2023-02-15T10:53:22;20.27;;;6.72;;
64208;SDS011;50527;52.414;13.226;2023-02-15T10:56:19;22.15;;;6.60;;
64208;SDS011;50527;52.414;13.226;2023-02-15T10:58:55;22.40;;;6.75;;
64208;SDS011;50527;52.414;13.226;2023-02-15T11:01:41;15.63;;;6.00;;
64208;SDS011;50527;52.414;13.226;2023-02-15T11:07:26;19.40;;;6.80;;
64208;SDS011;50527;52.414;13.226;2023-02-15T11:12:56;22.17;;;6.60;;
64208;SDS011;50527;52.414;13.226;2023-02-15T11:15:32;14.27;;;5.68;;
64208;SDS011;50527;52.414;13.226;2023-02-15T11:18:05;20.42;;;5.75;;
64208;SDS011;50527;52.414;13.226;2023-02-15T11:20:38;16.00;;;5.90;;
64208;SDS011;50527;52.414;13.226;2023-02-15T11:23:13;15.55;;;5.18;;
64208;SDS011;50527;52.414;13.226;2023-02-15T11:25:41;17.17;;;6.25;;
64208;SDS011;50527;52.414;13.226;2023-02-15T11:28:11;18.23;;;6.20;;
64208;SDS011;50527;52.414;13.226;2023-02-15T11:30:46;20.90;;;6.47;;
64208;SDS011;50527;52.414;13.226;2023-02-15T11:33:18;20.00;;;6.13;;
64208;SDS011;50527;52.414;13.226;2023-02-15T11:35:49;16.15;;;5.57;;
64208;SDS011;50527;52.414;13.226;2023-02-15T11:38:20;19.23;;;5.70;;
64208;SDS011;50527;52.414;13.226;2023-02-15T11:40:49;12.85;;;5.30;;
64208;SDS011;50527;52.414;13.226;2023-02-15T11:43:39;20.90;;;6.85;;
64208;SDS011;50527;52.414;13.226;2023-02-15T11:46:14;16.83;;;6.40;;
64208;SDS011;50527;52.414;13.226;2023-02-15T11:48:40;19.63;;;6.63;;
64208;SDS011;50527;52.414;13.226;2023-02-15T11:51:08;15.80;;;6.05;;
64208;SDS011;50527;52.414;13.226;2023-02-15T11:53:38;17.92;;;6.20;;
64208;SDS011;50527;52.414;13.226;2023-02-15T11:56:04;18.38;;;6.30;;
64208;SDS011;50527;52.414;13.226;2023-02-15T11:58:41;16.38;;;5.93;;
64208;SDS011;50527;52.414;13.226;2023-02-15T12:01:30;16.65;;;5.90;;
64208;SDS011;50527;52.414;13.226;2023-02-15T12:03:59;16.40;;;5.50;;
64208;SDS011;50527;52.414;13.226;2023-02-15T12:06:27;17.70;;;5.57;;
64208;SDS011;50527;52.414;13.226;2023-02-15T12:08:56;14.93;;;5.82;;
64208;SDS011;50527;52.414;13.226;2023-02-15T12:11:32;16.40;;;5.60;;
64208;SDS011;50527;52.414;13.226;2023-02-15T12:14:05;18.42;;;5.50;;
64208;SDS011;50527;52.414;13.226;2023-02-15T12:16:43;15.20;;;4.78;;
64208;SDS011;50527;52.414;13.226;2023-02-15T12:22:03;16.38;;;5.07;;
64208;SDS011;50527;52.414;13.226;2023-02-15T12:27:01;13.88;;;5.20;;
64208;SDS011;50527;52.414;13.226;2023-02-15T12:29:39;15.27;;;5.45;;
64208;SDS011;50527;52.414;13.226;2023-02-15T12:32:33;12.98;;;5.22;;
64208;SDS011;50527;52.414;13.226;2023-02-15T12:35:00;21.33;;;5.00;;
64208;SDS011;50527;52.414;13.226;2023-02-15T12:37:33;16.42;;;5.22;;
64208;SDS011;50527;52.414;13.226;2023-02-15T12:39:59;14.30;;;4.90;;
64208;SDS011;50527;52.414;13.226;2023-02-15T12:42:28;16.35;;;5.43;;
64208;SDS011;50527;52.414;13.226;2023-02-15T12:45:26;10.95;;;4.65;;
64208;SDS011;50527;52.414;13.226;2023-02-15T12:48:07;16.25;;;5.13;;
64208;SDS011;50527;52.414;13.226;2023-02-15T12:50:33;16.60;;;5.15;;
64208;SDS011;50527;52.414;13.226;2023-02-15T13:03:56;12.95;;;5.03;;
64208;SDS011;50527;52.414;13.226;2023-02-15T13:06:28;13.05;;;4.93;;
64208;SDS011;50527;52.414;13.226;2023-02-15T13:08:58;15.88;;;5.32;;
64208;SDS011;50527;52.414;13.226;2023-02-15T13:11:32;13.23;;;4.85;;
64208;SDS011;50527;52.414;13.226;2023-02-15T13:14:00;13.77;;;5.28;;
64208;SDS011;50527;52.414;13.226;2023-02-15T13:16:37;15.05;;;5.10;;
64208;SDS011;50527;52.414;13.226;2023-02-15T13:19:09;12.57;;;5.10;;
64208;SDS011;50527;52.414;13.226;2023-02-15T13:21:45;12.23;;;4.68;;
64208;SDS011;50527;52.414;13.226;2023-02-15T13:24:17;12.10;;;4.53;;
64208;SDS011;50527;52.414;13.226;2023-02-15T13:26:47;13.20;;;4.55;;
64208;SDS011;50527;52.414;13.226;2023-02-15T13:29:26;15.38;;;4.85;;
64208;SDS011;50527;52.414;13.226;2023-02-15T13:31:54;10.48;;;4.45;;
64208;SDS011;50527;52.414;13.226;2023-02-15T13:34:28;10.65;;;4.10;;
64208;SDS011;50527;52.414;13.226;2023-02-15T13:37:08;10.90;;;3.83;;
64208;SDS011;50527;52.414;13.226;2023-02-15T13:39:45;9.25;;;3.80;;
64208;SDS011;50527;52.414;13.226;2023-02-15T13:59:46;9.13;;;3.47;;
64208;SDS011;50527;52.414;13.226;2023-02-15T14:02:36;9.23;;;3.25;;
64208;SDS011;50527;52.414;13.226;2023-02-15T14:15:58;12.80;;;3.97;;
64208;SDS011;50527;52.414;13.226;2023-02-15T14:18:35;8.02;;;3.60;;
64208;SDS011;50527;52.414;13.226;2023-02-15T14:21:14;6.57;;;3.13;;
64208;SDS011;50527;52.414;13.226;2023-02-15T14:29:16;9.25;;;3.47;;
64208;SDS011;50527;52.414;13.226;2023-02-15T14:31:44;8.43;;;3.00;;
64208;SDS011;50527;52.414;13.226;2023-02-15T14:34:18;6.03;;;2.60;;
64208;SDS011;50527;52.414;13.226;2023-02-15T14:36:54;7.13;;;3.10;;
64208;SDS011;50527;52.414;13.226;2023-02-15T14:42:30;7.18;;;2.47;;
64208;SDS011;50527;52.414;13.226;2023-02-15T14:45:09;6.50;;;2.17;;
64208;SDS011;50527;52.414;13.226;2023-02-15T14:48:02;5.32;;;2.60;;
64208;SDS011;50527;52.414;13.226;2023-02-15T14:50:37;4.60;;;2.03;;
64208;SDS011;50527;52.414;13.226;2023-02-15T14:53:22;5.15;;;2.13;;
64208;SDS011;50527;52.414;13.226;2023-02-15T14:56:06;6.30;;;2.13;;
64208;SDS011;50527;52.414;13.226;2023-02-15T15:01:14;11.10;;;3.00;;
64208;SDS011;50527;52.414;13.226;2023-02-15T15:03:45;5.68;;;2.45;;
64208;SDS011;50527;52.414;13.226;2023-02-15T15:06:31;7.00;;;2.28;;
64208;SDS011;50527;52.414;13.226;2023-02-15T15:09:00;10.07;;;2.58;;
64208;SDS011;50527;52.414;13.226;2023-02-15T15:11:40;7.38;;;2.80;;
64208;SDS011;50527;52.414;13.226;2023-02-15T15:14:07;5.55;;;2.45;;
64208;SDS011;50527;52.414;13.226;2023-02-15T15:19:02;5.10;;;2.10;;
64208;SDS011;50527;52.414;13.226;2023-02-15T15:35:23;6.90;;;2.80;;
64208;SDS011;50527;52.414;13.226;2023-02-15T15:41:17;6.47;;;2.38;;
64208;SDS011;50527;52.414;13.226;2023-02-15T15:49:12;7.35;;;2.47;;
64208;SDS011;50527;52.414;13.226;2023-02-15T15:51:49;5.82;;;2.25;;
64208;SDS011;50527;52.414;13.226;2023-02-15T15:54:16;6.45;;;2.90;;
64208;SDS011;50527;52.414;13.226;2023-02-15T15:56:48;6.85;;;2.85;;
64208;SDS011;50527;52.414;13.226;2023-02-15T15:59:19;7.25;;;2.25;;
64208;SDS011;50527;52.414;13.226;2023-02-15T16:01:50;7.93;;;2.67;;
64208;SDS011;50527;52.414;13.226;2023-02-15T16:04:23;7.38;;;2.50;;
64208;SDS011;50527;52.414;13.226;2023-02-15T16:06:54;4.70;;;2.08;;
64208;SDS011;50527;52.414;13.226;2023-02-15T16:09:25;7.18;;;2.10;;
64208;SDS011;50527;52.414;13.226;2023-02-15T16:11:57;6.72;;;2.17;;
64208;SDS011;50527;52.414;13.226;2023-02-15T16:14:35;6.72;;;2.20;;
64208;SDS011;50527;52.414;13.226;2023-02-15T16:17:06;7.25;;;2.65;;
64208;SDS011;50527;52.414;13.226;2023-02-15T16:19:38;8.15;;;2.38;;
64208;SDS011;50527;52.414;13.226;2023-02-15T16:22:09;7.80;;;2.20;;
64208;SDS011;50527;52.414;13.226;2023-02-15T16:24:43;5.75;;;1.95;;
64208;SDS011;50527;52.414;13.226;2023-02-15T16:27:25;5.00;;;2.22;;
64208;SDS011;50527;52.414;13.226;2023-02-15T16:29:53;5.55;;;2.47;;
64208;SDS011;50527;52.414;13.226;2023-02-15T16:32:19;5.55;;;2.30;;
64208;SDS011;50527;52.414;13.226;2023-02-15T16:35:12;5.43;;;2.20;;
64208;SDS011;50527;52.414;13.226;2023-02-15T16:37:40;4.03;;;1.90;;
64208;SDS011;50527;52.414;13.226;2023-02-15T16:40:05;6.78;;;2.35;;
64208;SDS011;50527;52.414;13.226;2023-02-15T16:42:38;5.78;;;2.20;;
64208;SDS011;50527;52.414;13.226;2023-02-15T16:45:08;6.65;;;2.45;;
64208;SDS011;50527;52.414;13.226;2023-02-15T16:47:49;4.82;;;1.98;;
64208;SDS011;50527;52.414;13.226;2023-02-15T16:50:19;5.85;;;1.95;;
64208;SDS011;50527;52.414;13.226;2023-02-15T16:52:48;6.32;;;2.20;;
64208;SDS011;50527;52.414;13.226;2023-02-15T16:55:19;6.40;;;2.28;;
64208;SDS011;50527;52.414;13.226;2023-02-15T16:57:47;9.05;;;2.70;;
64208;SDS011;50527;52.414;13.226;2023-02-15T17:00:17;5.25;;;1.92;;